Time;durP1;ratioP1;P1;durP2;ratioP2;P2;SDS_P1;SDS_P2;PMS_P1;PMS_P2;Temp;Humidity;BMP_temperature;BMP_pressure;BME280_temperature;BME280_humidity;BME280_pressure;Samples;Min_cycle;Max_cycle;Signal;HPM_P1;HPM_P2
2022/01/01 00:05:35;;;;;;;0.40;0.40;;;;;;;19.94;48.74;97252.53;12609951;23;20397;-49
2022/01/01 00:10:55;;;;;;;0.50;0.50;;;;;;;19.93;48.74;97250.94;12609438;23;20018;-50
2022/01/01 00:16:14;;;;;;;0.40;0.40;;;;;;;19.91;48.88;97258.56;12629206;23;20022;-50
2022/01/01 00:21:33;;;;;;;0.35;0.35;;;;;;;19.90;48.92;97259.69;12629878;23;20057;-50
2022/01/01 00:26:53;;;;;;;0.50;0.50;;;;;;;19.90;48.88;97256.97;12609482;23;20408;-50
2022/01/01 00:32:13;;;;;;;1.70;0.52;;;;;;;19.89;48.99;97260.00;12609542;23;20264;-50
2022/01/01 00:37:33;;;;;;;0.40;0.40;;;;;;;19.87;48.86;97263.00;12629577;23;20094;-50
2022/01/01 00:42:52;;;;;;;1.48;0.50;;;;;;;19.86;49.00;97266.84;12609872;23;20379;-50
2022/01/01 00:48:12;;;;;;;0.40;0.40;;;;;;;19.86;48.82;97271.44;12610098;23;20022;-50
2022/01/01 00:53:31;;;;;;;0.47;0.47;;;;;;;19.84;48.92;97266.34;12629604;23;20018;-49
2022/01/01 00:58:50;;;;;;;0.40;0.40;;;;;;;19.83;48.98;97274.78;12629285;23;20018;-50
2022/01/01 01:04:10;;;;;;;0.40;0.40;;;;;;;19.81;48.96;97275.06;12609430;23;20018;-50
2022/01/01 01:09:30;;;;;;;0.45;0.40;;;;;;;19.82;48.94;97294.81;12609764;23;20482;-50
2022/01/01 01:14:51;;;;;;;0.40;0.40;;;;;;;19.79;48.99;97277.31;12609346;23;20026;-51
2022/01/01 01:20:12;;;;;;;0.40;0.40;;;;;;;19.78;49.08;97297.34;12609711;23;20446;-50
2022/01/01 01:25:38;;;;;;;0.40;0.40;;;;;;;19.78;48.94;97301.94;12629089;23;20058;-49
2022/01/01 01:30:58;;;;;;;0.47;0.47;;;;;;;19.77;49.00;97300.38;12609344;23;20018;-49
2022/01/01 01:36:17;;;;;;;0.50;0.50;;;;;;;19.77;49.00;97300.38;12609068;23;20093;-50
2022/01/01 01:41:37;;;;;;;0.40;0.40;;;;;;;19.74;49.10;97323.41;12610937;23;20018;-49
2022/01/01 01:46:59;;;;;;;0.43;0.40;;;;;;;19.73;49.17;97329.91;12613582;23;20632;-49
2022/01/01 01:52:19;;;;;;;0.40;0.40;;;;;;;19.72;48.99;97339.16;12632922;23;20022;-50
2022/01/01 01:57:41;;;;;;;0.30;0.30;;;;;;;19.71;48.93;97340.22;12632876;23;20014;-50
2022/01/01 02:03:00;;;;;;;0.38;0.38;;;;;;;19.71;48.99;97351.03;12613580;23;20644;-50
2022/01/01 02:08:21;;;;;;;0.43;0.40;;;;;;;19.69;49.00;97353.25;12632708;23;20019;-50
2022/01/01 02:14:21;;;;;;;0.40;0.40;;;;;;;19.67;49.00;97345.44;12612247;23;20018;-52
2022/01/01 02:19:27;;;;;;;0.40;0.40;;;;;;;19.67;49.14;97350.06;12612727;23;20470;-50
2022/01/01 02:24:47;;;;;;;0.40;0.40;;;;;;;19.65;48.97;97360.38;12631944;23;20022;-50
2022/01/01 02:30:09;;;;;;;0.45;0.45;;;;;;;19.65;49.15;97368.50;12612760;23;20018;-50
2022/01/01 02:35:28;;;;;;;0.40;0.40;;;;;;;19.63;49.02;97362.59;12612635;23;20316;-51
2022/01/01 02:40:48;;;;;;;0.40;0.40;;;;;;;19.63;49.18;97365.31;12612399;23;20020;-50
2022/01/01 02:46:07;;;;;;;0.30;0.30;;;;;;;19.60;49.04;97380.25;12612343;23;20320;-50
2022/01/01 02:51:27;;;;;;;0.40;0.40;;;;;;;19.60;49.25;97379.44;12612158;23;20018;-49
2022/01/01 02:56:48;;;;;;;0.40;0.40;;;;;;;19.58;49.18;97384.34;12631495;23;20019;-49
2022/01/01 03:02:08;;;;;;;0.50;0.50;;;;;;;19.57;49.15;97380.84;12611687;23;20018;-49
2022/01/01 03:07:27;;;;;;;0.50;0.50;;;;;;;19.56;49.20;97382.78;12611979;23;20042;-49
2022/01/01 03:12:46;;;;;;;0.50;0.50;;;;;;;19.54;49.21;97384.97;12631157;23;20455;-52
2022/01/01 03:18:05;;;;;;;0.50;0.50;;;;;;;19.55;49.24;97397.38;12611002;23;20022;-50
2022/01/01 03:23:25;;;;;;;0.47;0.45;;;;;;;19.52;49.34;97392.59;12611404;23;20075;-49
2022/01/01 03:28:44;;;;;;;0.40;0.40;;;;;;;19.52;49.15;97405.28;12611200;23;20022;-49
2022/01/01 03:34:04;;;;;;;0.35;0.35;;;;;;;19.52;49.21;97399.91;12611166;23;20019;-50
2022/01/01 03:39:23;;;;;;;0.43;0.43;;;;;;;19.51;49.24;97406.41;12630870;23;20019;-50
2022/01/01 03:44:43;;;;;;;0.40;0.40;;;;;;;19.49;49.29;97403.22;12611067;23;20018;-52
2022/01/01 03:50:03;;;;;;;0.40;0.40;;;;;;;19.48;49.28;97404.31;12630476;23;20454;-50
2022/01/01 03:55:22;;;;;;;0.40;0.40;;;;;;;19.46;49.39;97415.44;12611095;23;20541;-50
2022/01/01 04:00:42;;;;;;;0.40;0.40;;;;;;;19.46;49.23;97417.34;12630277;23;20025;-49
2022/01/01 04:06:02;;;;;;;0.40;0.40;;;;;;;19.43;49.22;97429.56;12610644;23;20018;-50
2022/01/01 04:11:21;;;;;;;0.40;0.40;;;;;;;19.44;49.34;97439.25;12610696;23;20475;-49
2022/01/01 04:16:42;;;;;;;0.50;0.50;;;;;;;19.42;49.23;97436.06;12610010;23;20041;-50
2022/01/01 04:22:02;;;;;;;0.32;0.32;;;;;;;19.41;49.39;97439.91;12610146;23;20076;-49
2022/01/01 04:27:21;;;;;;;0.40;0.40;;;;;;;19.40;49.22;97442.91;12629586;23;20025;-50
2022/01/01 04:32:41;;;;;;;0.95;0.40;;;;;;;19.38;49.38;97445.91;12629872;23;20451;-49
2022/01/01 04:38:01;;;;;;;0.50;0.50;;;;;;;19.37;49.29;97452.44;12610285;23;20022;-50
2022/01/01 04:43:20;;;;;;;0.40;0.40;;;;;;;19.36;49.25;97437.31;12629585;23;20010;-52
2022/01/01 04:48:40;;;;;;;0.50;0.50;;;;;;;19.34;49.42;97443.00;12609371;23;20022;-50
2022/01/01 04:54:02;;;;;;;0.40;0.40;;;;;;;19.33;49.27;97446.84;12609214;23;20014;-50
2022/01/01 04:59:21;;;;;;;1.98;0.40;;;;;;;19.32;49.25;97444.44;12609132;23;20022;-51
2022/01/01 05:04:41;;;;;;;0.40;0.40;;;;;;;19.31;49.36;97456.34;12609822;23;20640;-50
2022/01/01 05:10:00;;;;;;;0.30;0.30;;;;;;;19.31;49.34;97465.25;12609796;23;20474;-50
2022/01/01 05:15:20;;;;;;;0.30;0.30;;;;;;;19.28;49.28;97457.75;12628706;23;20018;-50
2022/01/01 05:20:39;;;;;;;0.30;0.30;;;;;;;19.28;49.46;97462.34;12609736;23;20555;-49
2022/01/01 05:25:58;;;;;;;0.30;0.30;;;;;;;19.27;49.38;97456.16;12609525;23;20022;-52
2022/01/01 05:31:19;;;;;;;0.30;0.30;;;;;;;19.26;49.44;97459.97;12608733;23;20019;-50
2022/01/01 05:36:39;;;;;;;0.45;0.45;;;;;;;19.25;49.43;97471.06;12628998;23;20446;-50
2022/01/01 05:41:58;;;;;;;0.40;0.40;;;;;;;19.25;49.44;97465.66;12628991;23;20022;-50
2022/01/01 05:47:17;;;;;;;0.65;0.40;;;;;;;19.24;49.36;97483.00;12609494;23;20347;-50
2022/01/01 05:52:37;;;;;;;0.40;0.40;;;;;;;19.23;49.51;97478.66;12608768;23;20018;-52
2022/01/01 05:57:56;;;;;;;0.40;0.40;;;;;;;19.23;49.32;97486.78;12608570;23;20019;-49
2022/01/01 06:03:17;;;;;;;0.40;0.40;;;;;;;19.23;49.42;97484.91;12609190;23;20019;-50
2022/01/01 06:08:37;;;;;;;0.40;0.40;;;;;;;19.24;49.47;97488.38;12628909;23;20069;-49
2022/01/01 06:13:56;;;;;;;0.38;0.38;;;;;;;19.24;49.36;97483.00;12628651;23;20029;-50
2022/01/01 06:19:15;;;;;;;0.40;0.40;;;;;;;19.24;49.50;97483.78;12608496;23;20032;-51
2022/01/01 06:24:34;;;;;;;0.40;0.40;;;;;;;19.24;49.32;97496.50;12608532;23;20022;-49
2022/01/01 06:29:54;;;;;;;0.32;0.32;;;;;;;19.24;49.45;97507.28;12610514;23;20018;-49
2022/01/01 06:35:13;;;;;;;0.40;0.40;;;;;;;19.25;49.30;97507.00;12611847;23;20093;-49
2022/01/01 06:40:32;;;;;;;0.55;0.50;;;;;;;19.25;49.44;97508.88;12612735;23;20026;-50
2022/01/01 06:45:52;;;;;;;0.40;0.40;;;;;;;19.24;49.42;97515.41;12612418;23;20024;-50
2022/01/01 06:51:11;;;;;;;0.40;0.40;;;;;;;19.24;49.32;97526.22;12611568;23;20145;-51
2022/01/01 06:56:31;;;;;;;0.40;0.40;;;;;;;19.24;49.40;97531.59;12631843;23;20053;-49
2022/01/01 07:01:50;;;;;;;0.50;0.50;;;;;;;19.25;49.41;97534.00;12611974;23;20023;-50
2022/01/01 07:07:11;;;;;;;0.40;0.40;;;;;;;19.25;49.37;97530.50;12611962;23;20018;-51
2022/01/01 07:12:31;;;;;;;0.30;0.30;;;;;;;19.26;49.35;97542.91;12611882;23;20443;-52
2022/01/01 07:17:50;;;;;;;0.30;0.30;;;;;;;19.28;49.36;97533.38;12629597;23;20021;-51
2022/01/01 07:23:10;;;;;;;0.40;0.40;;;;;;;19.30;49.37;97538.50;12610458;23;20014;-50
2022/01/01 07:28:30;;;;;;;0.38;0.38;;;;;;;19.31;49.35;97551.69;12589671;23;20038;-51
2022/01/01 07:33:50;;;;;;;0.40;0.40;;;;;;;19.33;49.25;97546.00;12611431;23;20085;-53
2022/01/01 07:39:10;;;;;;;0.32;0.32;;;;;;;19.35;49.25;97560.00;12630763;23;20018;-49
2022/01/01 07:44:29;;;;;;;0.30;0.30;;;;;;;19.36;49.32;97561.59;12630588;23;20023;-50
2022/01/01 07:49:48;;;;;;;0.40;0.40;;;;;;;19.38;49.21;97572.88;12610919;23;20018;-49
2022/01/01 07:55:08;;;;;;;0.30;0.30;;;;;;;19.40;49.30;97586.91;12610968;23;20021;-52
2022/01/01 08:00:28;;;;;;;0.40;0.38;;;;;;;19.43;49.22;97590.91;12630574;23;20025;-49
2022/01/01 08:05:47;;;;;;;0.40;0.40;;;;;;;19.44;49.34;97589.78;12609933;23;20073;-51
2022/01/01 08:11:07;;;;;;;0.40;0.40;;;;;;;19.46;49.29;97585.66;12630151;23;20065;-50
2022/01/01 08:16:26;;;;;;;0.40;0.40;;;;;;;19.50;49.29;97592.09;12610054;23;20555;-51
2022/01/01 08:21:46;;;;;;;0.30;0.30;;;;;;;19.52;49.20;97581.78;12629705;23;20015;-49
2022/01/01 08:27:05;;;;;;;0.40;0.40;;;;;;;19.56;49.33;97590.06;12610427;23;20022;-50
2022/01/01 08:32:24;;;;;;;0.40;0.40;;;;;;;19.57;49.09;97594.38;12610203;23;20023;-50
2022/01/01 08:37:43;;;;;;;0.40;0.40;;;;;;;19.60;49.23;97588.38;12629920;23;20497;-51
2022/01/01 08:43:03;;;;;;;0.40;0.40;;;;;;;19.62;49.11;97586.16;12610223;23;20037;-49
2022/01/01 08:48:23;;;;;;;0.30;0.30;;;;;;;19.64;49.08;97588.53;12610015;23;20019;-52
2022/01/01 08:53:44;;;;;;;0.30;0.30;;;;;;;19.67;48.96;97591.44;12609530;23;20046;-51
2022/01/01 08:59:04;;;;;;;0.40;0.40;;;;;;;19.70;49.00;97587.34;12609707;23;20034;-51
2022/01/01 09:04:23;;;;;;;0.32;0.32;;;;;;;19.71;48.89;97594.31;12609950;23;20065;-50
2022/01/01 09:09:43;;;;;;;0.40;0.40;;;;;;;19.74;48.71;97594.53;12609592;23;20022;-50
2022/01/01 09:15:03;;;;;;;0.30;0.30;;;;;;;19.76;48.79;97596.94;12628569;23;20030;-50
2022/01/01 09:20:23;;;;;;;0.50;0.50;;;;;;;19.78;48.82;97600.16;12609472;23;20018;-49
2022/01/01 09:25:42;;;;;;;0.40;0.40;;;;;;;19.82;48.75;97611.94;12608921;23;20018;-49
2022/01/01 09:31:02;;;;;;;0.32;0.32;;;;;;;19.85;48.73;97610.53;12629220;23;20018;-51
2022/01/01 09:36:21;;;;;;;0.40;0.40;;;;;;;19.87;48.76;97625.31;12629187;23;20026;-50
2022/01/01 09:41:42;;;;;;;0.30;0.30;;;;;;;19.90;48.75;97630.13;12629033;23;20520;-50
2022/01/01 09:47:02;;;;;;;0.20;0.20;;;;;;;19.92;48.57;97625.22;12609502;23;20018;-49
2022/01/01 09:52:22;;;;;;;0.30;0.30;;;;;;;19.95;48.69;97632.75;12629095;23;20021;-50
2022/01/01 09:57:41;;;;;;;0.32;0.32;;;;;;;19.99;48.59;97637.50;12628984;23;20015;-49
2022/01/01 10:03:01;;;;;;;0.30;0.30;;;;;;;20.01;48.45;97629.88;12630478;23;20014;-49
2022/01/01 10:08:23;;;;;;;0.40;0.40;;;;;;;20.04;48.48;97634.69;12613248;23;20085;-49
2022/01/01 10:13:44;;;;;;;0.30;0.30;;;;;;;20.05;48.37;97633.59;12612356;23;20018;-50
2022/01/01 10:19:03;;;;;;;0.30;0.30;;;;;;;20.09;48.34;97626.44;12632337;23;20057;-50
2022/01/01 10:24:40;;;;;;;0.32;0.32;;;;;;;20.09;48.41;97629.16;12612753;23;20443;-50
2022/01/01 10:29:59;;;;;;;0.40;0.40;;;;;;;20.12;48.31;97633.97;12632320;23;20521;-50
2022/01/01 10:35:19;;;;;;;0.38;0.38;;;;;;;20.12;48.39;97633.97;12612052;23;20015;-50
2022/01/01 10:40:40;;;;;;;0.38;0.38;;;;;;;20.15;48.32;97641.47;12612648;23;20018;-52
2022/01/01 10:45:59;;;;;;;0.30;0.30;;;;;;;20.15;48.30;97636.06;12612476;23;20038;-51
2022/01/01 10:51:19;;;;;;;0.40;0.40;;;;;;;20.17;48.19;97643.84;12631853;23;20027;-52
2022/01/01 10:56:39;;;;;;;0.30;0.30;;;;;;;20.17;48.29;97649.25;12631858;23;20042;-51
2022/01/01 11:01:58;;;;;;;0.30;0.30;;;;;;;20.18;48.16;97646.25;12611535;23;20022;-49
2022/01/01 11:07:27;;;;;;;0.22;0.22;;;;;;;20.19;48.07;97653.28;12611952;23;20014;-50
2022/01/01 11:12:47;;;;;;;;;;;;;;;20.18;48.19;97643.53;12612094;23;20021;-51
2022/01/01 11:18:07;;;;;;;0.30;0.30;;;;;;;20.18;48.08;97624.59;12630950;23;19941;-49
2022/01/01 11:23:27;;;;;;;0.35;0.35;;;;;;;20.18;48.05;97627.31;12612299;23;20583;-50
2022/01/01 11:28:47;;;;;;;0.35;0.35;;;;;;;20.18;48.14;97621.91;12611461;23;20320;-50
2022/01/01 11:34:07;;;;;;;0.40;0.40;;;;;;;20.18;48.05;97630.03;12611426;23;20522;-50
2022/01/01 11:39:27;;;;;;;0.40;0.40;;;;;;;20.19;48.15;97634.34;12609415;23;20072;-50
2022/01/01 11:44:52;;;;;;;0.38;0.38;;;;;;;20.19;48.18;97634.34;12610983;23;20076;-49
2022/01/01 11:50:44;;;;;;;0.30;0.30;;;;;;;20.19;48.23;97641.63;12611322;23;20024;-50
2022/01/01 11:56:12;;;;;;;0.30;0.30;;;;;;;20.17;48.25;97625.72;12630404;23;20101;-50
2022/01/01 12:01:40;;;;;;;0.30;0.30;;;;;;;20.17;48.20;97622.22;12610963;23;20042;-50
2022/01/01 12:07:01;;;;;;;;;;;;;;;20.15;48.19;97626.03;12611333;23;20025;-51
2022/01/01 12:12:50;;;;;;;0.30;0.30;;;;;;;20.15;48.23;97627.94;12622142;23;19944;-49
2022/01/01 12:18:15;;;;;;;0.30;0.30;;;;;;;20.15;48.29;97642.25;12610216;23;20023;-49
2022/01/01 12:23:36;;;;;;;0.30;0.30;;;;;;;20.14;48.24;97645.28;12610545;23;20394;-52
2022/01/01 12:29:02;;;;;;;0.40;0.40;;;;;;;20.14;48.22;97640.66;12629811;23;20022;-53
2022/01/01 12:34:22;;;;;;;0.20;0.20;;;;;;;20.12;48.25;97633.97;12629907;23;20033;-52
2022/01/01 12:40:05;;;;;;;0.30;0.30;;;;;;;20.11;48.21;97648.56;12609384;23;20018;-52
2022/01/01 12:45:24;;;;;;;0.30;0.30;;;;;;;20.10;48.23;97642.38;12629392;23;20023;-51
2022/01/01 12:50:44;;;;;;;0.30;0.30;;;;;;;20.10;48.27;97644.28;12610078;23;20028;-51
2022/01/01 12:56:11;;;;;;;0.30;0.30;;;;;;;20.09;48.27;97635.38;12607762;23;20022;-52
2022/01/01 13:01:33;;;;;;;0.40;0.40;;;;;;;20.09;48.28;97631.84;12610159;23;20086;-52
2022/01/01 13:06:55;;;;;;;0.30;0.30;;;;;;;20.09;48.16;97643.50;12629301;23;20537;-51
2022/01/01 13:12:18;;;;;;;0.30;0.30;;;;;;;20.06;48.30;97635.19;12608982;23;20026;-52
2022/01/01 13:17:46;;;;;;;0.22;0.22;;;;;;;20.06;48.30;97649.50;12609051;23;20402;-51
2022/01/01 13:23:06;;;;;;;0.40;0.40;;;;;;;20.05;48.33;97655.22;12628893;23;20098;-51
2022/01/01 13:28:31;;;;;;;0.50;0.40;;;;;;;20.05;48.31;97652.50;12629281;23;20018;-51
2022/01/01 13:33:53;;;;;;;0.30;0.30;;;;;;;20.02;48.32;97656.63;12629305;23;20072;-54
2022/01/01 13:39:16;;;;;;;0.35;0.35;;;;;;;20.03;48.39;97670.94;12612158;23;20018;-51
2022/01/01 13:44:42;;;;;;;0.40;0.40;;;;;;;20.03;48.34;97671.78;12613616;23;20054;-51
2022/01/01 13:50:12;;;;;;;0.30;0.30;;;;;;;20.03;48.31;97670.94;12612804;23;20022;-53
2022/01/01 13:55:33;;;;;;;0.30;0.30;;;;;;;20.01;48.33;97667.75;12632886;23;20023;-52
2022/01/01 14:00:54;;;;;;;0.25;0.25;;;;;;;20.00;48.39;97672.38;12592008;23;20467;-52
2022/01/01 14:06:22;;;;;;;0.30;0.30;;;;;;;19.99;48.42;97686.19;12613100;23;20076;-51
2022/01/01 14:11:42;;;;;;;0.40;0.40;;;;;;;19.99;48.45;97691.59;12613070;23;20049;-52
2022/01/01 14:17:07;;;;;;;0.30;0.30;;;;;;;19.99;48.43;97691.59;12615810;23;20025;-51
2022/01/01 14:22:28;;;;;;;0.30;0.30;;;;;;;19.97;48.44;97699.22;12632193;23;20029;-51
2022/01/01 14:27:48;;;;;;;0.38;0.38;;;;;;;19.95;48.49;97708.47;12632445;23;20046;-52
2022/01/01 14:33:08;;;;;;;0.38;0.38;;;;;;;19.94;48.41;97711.47;12612672;23;20533;-54
2022/01/01 14:38:29;;;;;;;0.47;0.47;;;;;;;19.93;48.43;97707.97;12632244;23;20018;-52
2022/01/01 14:43:50;;;;;;;0.40;0.40;;;;;;;19.92;48.50;97698.25;12631886;23;20022;-52
2022/01/01 14:49:34;;;;;;;0.40;0.40;;;;;;;19.92;48.45;97702.84;12631805;23;20018;-57
2022/01/01 14:55:06;;;;;;;0.30;0.30;;;;;;;19.90;48.56;97692.34;12590965;23;20404;-52
2022/01/01 15:00:28;;;;;;;0.60;0.60;;;;;;;19.88;48.41;97697.25;12611322;23;20606;-51
2022/01/01 15:05:50;;;;;;;1.48;1.38;;;;;;;19.84;45.79;97680.03;12629481;23;20018;-52
2022/01/01 15:11:10;;;;;;;0.50;0.50;;;;;;;19.84;47.26;97698.16;12608677;23;20346;-53
2022/01/01 15:16:31;;;;;;;1.40;1.13;;;;;;;19.84;47.43;97701.66;12602650;23;20027;-52
2022/01/01 15:22:07;;;;;;;1.40;1.00;;;;;;;19.81;47.28;97707.66;12589787;23;20097;-51
2022/01/01 15:27:27;;;;;;;0.80;0.80;;;;;;;19.82;47.36;97708.50;12611020;23;20026;-54
2022/01/01 15:38:41;;;;;;;2.05;0.70;;;;;;;19.79;47.43;97699.06;12593066;23;20355;-51
2022/01/01 15:44:01;;;;;;;0.95;0.85;;;;;;;19.79;47.48;97706.38;12631250;23;20094;-54
2022/01/01 15:49:21;;;;;;;1.35;0.90;;;;;;;19.77;47.50;97693.16;12609918;23;20046;-51
2022/01/01 15:54:40;;;;;;;0.93;0.80;;;;;;;19.76;47.63;97691.56;12609054;23;20024;-52
2022/01/01 16:00:14;;;;;;;0.70;0.70;;;;;;;19.75;47.76;97698.88;12628171;23;20037;-54
2022/01/01 16:05:56;;;;;;;1.08;0.90;;;;;;;19.74;47.83;97696.50;12609830;23;20018;-51
2022/01/01 16:11:15;;;;;;;0.80;0.80;;;;;;;19.73;47.93;97708.38;12610099;23;20399;-51
2022/01/01 16:16:40;;;;;;;2.33;0.90;;;;;;;19.72;47.86;97713.00;12609958;23;20022;-52
2022/01/01 16:22:00;;;;;;;0.95;0.90;;;;;;;19.72;47.92;97701.41;12630027;23;20034;-51
2022/01/01 16:27:22;;;;;;;0.77;0.77;;;;;;;19.69;47.98;97705.47;12629496;23;20591;-52
2022/01/01 16:32:42;;;;;;;0.80;0.80;;;;;;;19.70;47.97;97706.28;12629779;23;20110;-51
2022/01/01 16:38:03;;;;;;;1.75;0.80;;;;;;;19.68;48.10;97693.06;12609785;23;20073;-52
2022/01/01 16:43:23;;;;;;;0.80;0.80;;;;;;;19.66;48.04;97691.75;12608612;23;20019;-53
2022/01/01 16:49:07;;;;;;;0.73;0.60;;;;;;;19.65;48.17;97701.75;12609959;23;20022;-51
2022/01/01 16:54:27;;;;;;;1.00;0.70;;;;;;;19.65;48.15;97703.69;12629248;23;20024;-54
2022/01/01 17:00:05;;;;;;;0.77;0.77;;;;;;;19.63;48.22;97700.47;12629383;23;20093;-52
2022/01/01 17:05:25;;;;;;;0.80;0.80;;;;;;;19.63;48.24;97708.59;12608667;23;20014;-52
2022/01/01 17:10:47;;;;;;;0.75;0.75;;;;;;;19.62;48.20;97690.75;12608859;23;20046;-52
2022/01/01 17:16:33;;;;;;;0.88;0.75;;;;;;;19.60;48.30;97693.78;12628797;23;20018;-51
2022/01/01 17:22:01;;;;;;;0.98;0.90;;;;;;;19.60;48.17;97690.25;12628985;23;20042;-52
2022/01/01 17:27:36;;;;;;;0.80;0.80;;;;;;;19.58;48.43;97693.25;12629024;23;20018;-51
2022/01/01 17:44:40;;;;;;;1.02;0.70;;;;;;;19.54;48.24;97698.50;12609204;23;20019;-52
2022/01/01 17:50:15;;;;;;;0.80;0.80;;;;;;;19.53;48.52;97702.28;12609380;23;20445;-51
2022/01/01 17:55:37;;;;;;;1.00;0.90;;;;;;;19.51;48.34;97696.38;12628407;23;20026;-51
2022/01/01 18:00:57;;;;;;;0.95;0.70;;;;;;;19.50;48.44;97708.31;12609368;23;20033;-51
2022/01/01 18:06:19;;;;;;;1.33;0.85;;;;;;;19.50;48.36;97708.31;12587095;23;20031;-52
2022/01/01 18:11:51;;;;;;;0.80;0.70;;;;;;;19.50;48.51;97696.66;12609115;23;20439;-54
2022/01/01 18:17:11;;;;;;;0.90;0.73;;;;;;;19.49;48.49;97706.69;12607130;23;20019;-53
2022/01/01 18:22:30;;;;;;;1.08;0.75;;;;;;;19.49;48.60;97695.88;12628846;23;20037;-52
2022/01/01 18:28:01;;;;;;;1.38;0.90;;;;;;;19.50;48.36;97696.66;12610703;23;20454;-52
2022/01/01 18:33:21;;;;;;;1.13;0.80;;;;;;;19.51;48.41;97695.59;12610688;23;20019;-51
2022/01/01 18:38:42;;;;;;;1.10;0.88;;;;;;;19.51;48.46;97693.66;12610168;23;20501;-51
2022/01/01 18:44:02;;;;;;;1.25;0.80;;;;;;;19.51;48.75;97693.66;12631819;23;20018;-54
2022/01/01 18:49:22;;;;;;;0.73;0.73;;;;;;;19.53;48.79;97691.47;12612434;23;20045;-51
2022/01/01 18:55:15;;;;;;;1.05;0.80;;;;;;;19.56;48.90;97685.47;12629069;23;20019;-51
2022/01/01 19:01:01;;;;;;;1.08;0.82;;;;;;;19.58;49.30;97679.75;12562274;23;20018;-51
2022/01/01 19:06:21;;;;;;;1.08;0.98;;;;;;;19.60;49.11;97682.97;12609617;23;20014;-52
2022/01/01 19:11:40;;;;;;;1.13;1.00;;;;;;;19.62;49.26;97667.25;12611670;23;20026;-51
2022/01/01 19:17:00;;;;;;;1.55;1.23;;;;;;;19.63;47.98;97671.53;12628587;23;20517;-53
2022/01/01 19:22:20;;;;;;;1.33;1.15;;;;;;;19.67;48.62;97677.13;12631097;23;20018;-52
2022/01/01 19:27:40;;;;;;;2.00;1.20;;;;;;;19.68;48.60;97676.03;12610065;23;20022;-51
2022/01/01 19:33:00;;;;;;;1.45;1.13;;;;;;;19.70;48.77;97680.03;12589694;23;20109;-51
2022/01/01 19:38:20;;;;;;;1.40;1.30;;;;;;;19.71;48.69;97676.25;12610730;23;20094;-54
2022/01/01 19:44:07;;;;;;;1.30;1.13;;;;;;;19.75;48.67;97687.25;12610953;23;20053;-51
2022/01/01 19:49:31;;;;;;;1.48;1.33;;;;;;;19.78;48.56;97680.44;12609082;23;20029;-52
2022/01/01 19:54:50;;;;;;;3.67;2.90;;;;;;;19.75;44.82;97677.25;12587902;23;20114;-53
2022/01/01 20:00:13;;;;;;;2.53;1.90;;;;;;;19.78;46.92;97666.91;12624248;23;20018;-51
2022/01/01 20:05:32;;;;;;;3.47;1.80;;;;;;;19.82;47.02;97665.22;12607172;23;20038;-51
2022/01/01 20:10:52;;;;;;;3.50;1.80;;;;;;;19.87;47.20;97668.59;12626147;23;20014;-52
2022/01/01 20:16:12;;;;;;;3.08;2.00;;;;;;;19.91;47.60;97656.06;12626873;23;20026;-51
2022/01/01 20:21:33;;;;;;;12.45;1.98;;;;;;;19.95;47.70;97648.97;12607853;23;20098;-51
2022/01/01 20:26:52;;;;;;;4.68;1.90;;;;;;;19.99;47.73;97667.25;12608040;23;20327;-54
2022/01/01 20:32:13;;;;;;;4.90;2.00;;;;;;;20.01;47.78;97673.16;12627627;23;20129;-54
2022/01/01 20:37:32;;;;;;;2.47;2.10;;;;;;;20.02;47.94;97662.03;12609591;23;20391;-52
2022/01/01 20:42:52;;;;;;;5.88;2.20;;;;;;;20.04;47.88;97662.53;12607787;23;20501;-51
2022/01/01 20:48:12;;;;;;;6.35;2.35;;;;;;;20.07;47.91;97667.34;12626876;23;20061;-51
2022/01/01 20:53:31;;;;;;;3.53;2.35;;;;;;;20.09;47.87;97669.72;12628373;23;20066;-52
2022/01/01 20:58:51;;;;;;;3.10;2.35;;;;;;;20.09;47.92;97673.25;12627843;23;20502;-51
2022/01/01 21:04:13;;;;;;;3.13;2.63;;;;;;;20.11;47.97;97665.63;12587043;23;20058;-52
2022/01/01 21:09:38;;;;;;;3.92;2.80;;;;;;;20.12;47.89;97661.00;12608597;23;20033;-54
2022/01/01 21:14:58;;;;;;;3.85;2.67;;;;;;;20.12;47.90;97656.38;12607528;23;20583;-51
2022/01/01 21:20:19;;;;;;;4.50;2.50;;;;;;;20.13;48.04;97649.91;12606868;23;20022;-51
2022/01/01 21:25:38;;;;;;;4.07;2.55;;;;;;;20.16;48.06;97656.59;12604099;23;20029;-52
2022/01/01 21:30:57;;;;;;;3.03;2.60;;;;;;;20.18;47.92;97650.88;12608842;23;20486;-54
2022/01/01 21:36:17;;;;;;;4.32;2.42;;;;;;;20.19;47.83;97650.56;12608414;23;20034;-52
2022/01/01 21:41:37;;;;;;;4.68;3.10;;;;;;;20.18;48.01;97643.53;12625777;23;20018;-55
2022/01/01 21:46:56;;;;;;;4.07;2.80;;;;;;;20.20;48.05;97638.63;12606840;23;20015;-52
2022/01/01 21:52:16;;;;;;;4.07;2.55;;;;;;;20.19;48.09;97639.75;12607292;23;20510;-52
2022/01/01 21:57:36;;;;;;;7.57;2.85;;;;;;;20.20;48.18;97632.44;12606726;23;20093;-52
2022/01/01 22:02:56;;;;;;;3.38;2.47;;;;;;;20.20;48.28;97632.44;12611007;23;20046;-51
2022/01/01 22:08:16;;;;;;;4.40;2.88;;;;;;;20.20;48.27;97629.72;12629714;23;20019;-51
2022/01/01 22:13:35;;;;;;;4.30;2.90;;;;;;;20.18;48.42;97615.69;12630284;23;20203;-51
2022/01/01 22:18:55;;;;;;;3.45;2.60;;;;;;;20.18;48.46;97608.38;12609830;23;20026;-52
2022/01/01 22:24:15;;;;;;;3.08;2.47;;;;;;;20.16;48.45;97605.19;12610535;23;20015;-53
2022/01/01 22:29:35;;;;;;;3.53;2.45;;;;;;;20.17;48.50;97606.78;12610135;23;20018;-52
2022/01/01 22:34:54;;;;;;;3.60;2.80;;;;;;;20.17;48.48;97601.38;12610104;23;20021;-51
2022/01/01 22:40:15;;;;;;;3.20;2.53;;;;;;;20.17;48.54;97593.28;12609529;23;20022;-52
2022/01/01 22:45:35;;;;;;;3.67;2.58;;;;;;;20.17;48.67;97584.34;12609208;23;20018;-52
2022/01/01 22:50:54;;;;;;;3.97;2.58;;;;;;;20.16;48.63;97578.13;12609757;23;20022;-52
2022/01/01 22:56:14;;;;;;;3.72;2.30;;;;;;;20.14;48.69;97573.03;12612174;23;20014;-54
2022/01/01 23:01:33;;;;;;;5.05;2.47;;;;;;;20.12;48.64;97569.81;12630954;23;20019;-52
2022/01/01 23:06:53;;;;;;;2.45;2.25;;;;;;;20.13;48.62;97567.91;12611128;23;20026;-51
2022/01/01 23:12:13;;;;;;;2.88;2.13;;;;;;;20.11;48.62;97556.59;12611304;23;20061;-52
2022/01/01 23:17:36;;;;;;;3.47;2.28;;;;;;;20.11;48.75;97551.19;12610771;23;20023;-51
2022/01/01 23:22:57;;;;;;;3.33;2.28;;;;;;;20.09;48.58;97540.72;12611102;23;20022;-51
2022/01/01 23:28:21;;;;;;;3.22;2.10;;;;;;;20.09;48.64;97539.88;12630888;23;20018;-51
2022/01/01 23:33:41;;;;;;;3.55;2.33;;;;;;;20.08;48.65;97543.72;12610885;23;20046;-51
2022/01/01 23:39:02;;;;;;;3.47;2.30;;;;;;;20.07;48.67;97525.88;12611184;23;20413;-51
2022/01/01 23:44:22;;;;;;;3.13;2.35;;;;;;;20.06;48.77;97521.59;12610782;23;20022;-51
2022/01/01 23:49:42;;;;;;;3.80;2.35;;;;;;;20.05;48.74;97518.09;12610601;23;20018;-51
2022/01/01 23:55:12;;;;;;;2.83;2.03;;;;;;;20.04;48.72;97523.81;12610479;23;20060;-51
